Iuiu, Brazil
Current Conditions -  °F | °C
As of 3:00 PM on Friday 19 Dec 2014 (Local Time) from SBMK Reporting Station
Scattered Clouds Scattered Clouds  
Wind Chill: 91°   Ceiling: Unl
Heat Index: 91°   Visibility: 6mi
Dew Point: 59°   Wind: 6mph
Humidity: 34%   Direction: NA
Pressure: 29.83"   Gusts: NA
Location:  14.41°S, 43.55°W
Report Text: SBMK 191800Z VRB05KT 9999 SCT045 33/15 Q1010
Loading
Personal Weather Stations






























Interactive Weather Map New forecast layout! Learn more

10-Day Weather Forecast

Advertisements
Track Severe Weather on mobile